Algoma Mariner — CFN5517 — position and weather

sailwx.info

Track history (hours):
 
Tides and Currents Weather Stations Pressure Air Temp Water Temp Dewpoint Dewpoint Depression Visibility Wind Speed Wind Dir Waves Ship Positions

Algoma Mariner

Last reported at 2018-Aug-19 16:24 UTC. Time now 2018-Aug-19 22:41 UTC.
Position N 46°50' W 071°11'.

Length 225 m; draft 10.9 m.

Type: Cargo ship. MMSI: 316014050.

Date/timePositionNaut miles runAvg speedWind from/ knotsBaromVisibWave heightAir tempDewpointWater temp
2018-Aug-19 16:24N 46°50' W 071°11'  
2018-Aug-12 19:28N 46°50' W 071°08'9213.3
2018-Aug-12 12:34N 46°04' W 073°02'114.4
2018-Aug-12 12:30N 46°04' W 073°04'611.9
2018-Aug-12 12:00N 46°00' W 073°11'713.6
2018-Aug-12 11:30N 45°54' W 073°14'4 8.8
2018-Aug-12 11:00N 45°50' W 073°17'0 0.0
2018-Aug-12 10:30N 45°50' W 073°17'0 0.0
2018-Aug-12 09:56N 45°50' W 073°17'0 0.0
2018-Aug-12 09:26N 45°50' W 073°17'0 0.0
2018-Aug-12 08:53N 45°50' W 073°17'0 0.0
2018-Aug-12 08:26N 45°50' W 073°17'0 0.0
2018-Aug-12 07:59N 45°50' W 073°17'0 0.0
2018-Aug-12 07:20N 45°50' W 073°17'0 0.0
2018-Aug-12 06:59N 45°50' W 073°17'0 0.0
2018-Aug-12 06:26N 45°50' W 073°17'0 0.0
2018-Aug-12 05:56N 45°50' W 073°17'0 0.0
2018-Aug-12 05:26N 45°50' W 073°17'0 0.0
2018-Aug-12 04:56N 45°50' W 073°17'0 0.0
2018-Aug-12 04:26N 45°50' W 073°17'0 0.0
2018-Aug-12 03:59N 45°50' W 073°17'0 0.0
2018-Aug-12 03:26N 45°50' W 073°17'0 0.0
2018-Aug-12 02:56N 45°50' W 073°17'0 0.0
2018-Aug-12 02:29N 45°50' W 073°17'0 0.0
2018-Aug-12 01:53N 45°50' W 073°17'0 0.0
2018-Aug-12 01:29N 45°50' W 073°17'0 0.0
2018-Aug-12 00:56N 45°50' W 073°17'0 0.0
2018-Aug-12 00:29N 45°50' W 073°17'0 0.0
2018-Aug-11 23:50N 45°50' W 073°17'0 0.0
2018-Aug-11 23:20N 45°50' W 073°17'0 0.0
2018-Aug-11 22:56N 45°50' W 073°17'0 0.0
2018-Aug-11 22:26N 45°50' W 073°17'0 0.0
2018-Aug-11 21:56N 45°50' W 073°17'0 0.0
2018-Aug-11 21:27N 45°50' W 073°17'0 0.7
2018-Aug-11 21:00N 45°50' W 073°17'3 6.8
2018-Aug-11 20:30N 45°53' W 073°15'4 8.0
2018-Aug-11 20:00N 45°57' W 073°13'4 8.6
2018-Aug-11 19:29N 46°01' W 073°10'4 8.0
2018-Aug-11 19:00N 46°04' W 073°06'4 8.4
2018-Aug-11 18:29N 46°05' W 073°00'8710.7
2018-Aug-11 10:23N 46°49' W 071°12'  
Track history (hours):
 
Tides and Currents Weather Stations Pressure Air Temp Water Temp Dewpoint Dewpoint Depression Visibility Wind Speed Wind Dir Waves Ship Positions

Algoma Mariner

Last reported at 2018-Aug-19 16:24 UTC. Time now 2018-Aug-19 22:41 UTC.
Position N 46°50' W 071°11'.

Length 225 m; draft 10.9 m.

Type: Cargo ship. MMSI: 316014050.

Date/timePositionNaut miles runAvg speedWind from/ knotsBaromVisibWave heightAir tempDewpointWater temp
2018-Aug-19 16:24N 46°50' W 071°11'  
2018-Aug-12 19:28N 46°50' W 071°08'9213.3
2018-Aug-12 12:34N 46°04' W 073°02'114.4
2018-Aug-12 12:30N 46°04' W 073°04'611.9
2018-Aug-12 12:00N 46°00' W 073°11'713.6
2018-Aug-12 11:30N 45°54' W 073°14'4 8.8
2018-Aug-12 11:00N 45°50' W 073°17'0 0.0
2018-Aug-12 10:30N 45°50' W 073°17'0 0.0
2018-Aug-12 09:56N 45°50' W 073°17'0 0.0
2018-Aug-12 09:26N 45°50' W 073°17'0 0.0
2018-Aug-12 08:53N 45°50' W 073°17'0 0.0
2018-Aug-12 08:26N 45°50' W 073°17'0 0.0
2018-Aug-12 07:59N 45°50' W 073°17'0 0.0
2018-Aug-12 07:20N 45°50' W 073°17'0 0.0
2018-Aug-12 06:59N 45°50' W 073°17'0 0.0
2018-Aug-12 06:26N 45°50' W 073°17'0 0.0
2018-Aug-12 05:56N 45°50' W 073°17'0 0.0
2018-Aug-12 05:26N 45°50' W 073°17'0 0.0
2018-Aug-12 04:56N 45°50' W 073°17'0 0.0
2018-Aug-12 04:26N 45°50' W 073°17'0 0.0
2018-Aug-12 03:59N 45°50' W 073°17'0 0.0
2018-Aug-12 03:26N 45°50' W 073°17'0 0.0
2018-Aug-12 02:56N 45°50' W 073°17'0 0.0
2018-Aug-12 02:29N 45°50' W 073°17'0 0.0
2018-Aug-12 01:53N 45°50' W 073°17'0 0.0
2018-Aug-12 01:29N 45°50' W 073°17'0 0.0
2018-Aug-12 00:56N 45°50' W 073°17'0 0.0
2018-Aug-12 00:29N 45°50' W 073°17'0 0.0
2018-Aug-11 23:50N 45°50' W 073°17'0 0.0
2018-Aug-11 23:20N 45°50' W 073°17'0 0.0
2018-Aug-11 22:56N 45°50' W 073°17'0 0.0
2018-Aug-11 22:26N 45°50' W 073°17'0 0.0
2018-Aug-11 21:56N 45°50' W 073°17'0 0.0
2018-Aug-11 21:27N 45°50' W 073°17'0 0.7
2018-Aug-11 21:00N 45°50' W 073°17'3 6.8
2018-Aug-11 20:30N 45°53' W 073°15'4 8.0
2018-Aug-11 20:00N 45°57' W 073°13'4 8.6
2018-Aug-11 19:29N 46°01' W 073°10'4 8.0
2018-Aug-11 19:00N 46°04' W 073°06'4 8.4
2018-Aug-11 18:29N 46°05' W 073°00'8710.7
2018-Aug-11 10:23N 46°49' W 071°12'  

Dump ship's entire track history